Acton, Texas
Current Conditions -  °F | °C
As of 4:55 PM on Thursday 18 Dec 2014 (Local Time) from KGDJ Reporting Station
Overcast Overcast  
Wind Chill: 52°   Ceiling: 1300
Heat Index: 52°   Visibility: 10mi
Dew Point: 47°   Wind: 3mph
Humidity: 83%   Direction: 30°NNE
Pressure: 30.11"   Gusts: NA
Location:  32.4693°N, 97.7085°W
Report Text: KGDJ 182255Z AUTO 03003KT 10SM OVC013 11/08 A3011 RMK AO2 T01100082
Loading
Personal Weather Stations






























Interactive Weather Map New forecast layout! Learn more

10-Day Weather Forecast

Advertisements
Track Severe Weather on mobile